createdAt,value
2017-10-20T00:01:15.091Z,55.00
2017-10-20T00:03:44.081Z,55.00
2017-10-20T00:06:13.179Z,55.00
2017-10-20T00:08:42.168Z,55.10
2017-10-20T00:11:11.362Z,55.10
2017-10-20T00:13:40.361Z,55.10
2017-10-20T00:16:09.345Z,55.10
2017-10-20T00:18:38.337Z,55.10
2017-10-20T00:21:07.344Z,55.30
2017-10-20T00:23:36.359Z,55.20
2017-10-20T00:26:04.608Z,55.20
2017-10-20T00:28:32.872Z,55.30
2017-10-20T00:31:01.924Z,55.20
2017-10-20T00:33:30.195Z,55.20
2017-10-20T00:35:58.435Z,55.20
2017-10-20T00:38:26.644Z,55.20
2017-10-20T00:40:54.876Z,55.20
2017-10-20T00:43:23.873Z,55.20
2017-10-20T00:45:52.101Z,55.20
2017-10-20T00:48:20.312Z,55.30
2017-10-20T00:50:49.299Z,55.40
2017-10-20T00:53:18.254Z,55.40
2017-10-20T00:55:46.481Z,55.40
2017-10-20T00:58:14.712Z,55.40
2017-10-20T01:00:42.979Z,55.50
2017-10-20T01:03:11.246Z,55.50
2017-10-20T01:05:39.481Z,55.40
2017-10-20T01:08:07.709Z,55.40
2017-10-20T01:10:35.956Z,55.40
2017-10-20T01:13:04.551Z,55.30
2017-10-20T01:15:32.780Z,55.30
2017-10-20T01:18:01.031Z,55.40
2017-10-20T01:20:30.049Z,55.40
2017-10-20T01:22:58.244Z,55.40
2017-10-20T01:25:26.482Z,55.50
2017-10-20T01:27:55.463Z,55.60
2017-10-20T01:30:23.745Z,55.40
2017-10-20T01:32:52.011Z,55.50
2017-10-20T01:35:20.289Z,55.40
2017-10-20T01:37:48.483Z,55.40
2017-10-20T01:40:17.835Z,55.40
2017-10-20T01:42:46.051Z,55.40
2017-10-20T01:45:15.035Z,55.40
2017-10-20T01:47:44.000Z,55.40
2017-10-20T01:50:12.202Z,55.40
2017-10-20T01:52:41.179Z,55.50
2017-10-20T01:55:09.388Z,55.50
2017-10-20T01:57:38.015Z,55.40
2017-10-20T02:00:06.213Z,55.40
2017-10-20T02:02:34.423Z,55.40
2017-10-20T02:05:02.657Z,55.40
2017-10-20T02:07:30.879Z,55.40
2017-10-20T02:09:59.095Z,55.40
2017-10-20T02:12:27.424Z,55.40
2017-10-20T02:14:56.004Z,55.40
2017-10-20T02:17:24.247Z,55.40
2017-10-20T02:19:52.461Z,55.50
2017-10-20T02:22:20.675Z,55.90
2017-10-20T02:24:48.902Z,55.50
2017-10-20T02:27:18.251Z,55.50
2017-10-20T02:29:46.477Z,55.50
2017-10-20T02:32:14.718Z,55.40
2017-10-20T02:34:43.746Z,55.40
2017-10-20T02:37:12.026Z,55.40
2017-10-20T02:39:40.251Z,55.40
2017-10-20T02:42:08.488Z,55.40
2017-10-20T02:44:36.741Z,55.40
2017-10-20T02:47:04.973Z,55.40
2017-10-20T02:49:33.241Z,55.40
2017-10-20T02:52:01.442Z,55.30
2017-10-20T02:54:30.421Z,56.00
2017-10-20T02:56:58.641Z,55.30
2017-10-20T02:59:26.868Z,55.30
2017-10-20T03:01:55.066Z,55.30
2017-10-20T03:04:24.047Z,55.40
2017-10-20T03:06:53.104Z,55.40
2017-10-20T03:09:21.512Z,55.30
2017-10-20T03:11:50.556Z,55.50
2017-10-20T03:14:18.769Z,55.30
2017-10-20T03:16:47.036Z,55.30
2017-10-20T03:19:15.326Z,55.30
2017-10-20T03:21:43.609Z,55.30
2017-10-20T03:24:11.872Z,55.30
2017-10-20T03:26:41.016Z,55.30
2017-10-20T03:29:09.291Z,55.30
2017-10-20T03:31:37.547Z,55.30
2017-10-20T03:34:05.787Z,55.30
2017-10-20T03:36:34.036Z,55.50
2017-10-20T03:39:02.343Z,55.40
2017-10-20T03:41:30.585Z,55.40
2017-10-20T03:43:58.792Z,55.40
2017-10-20T03:46:27.006Z,55.40
2017-10-20T03:48:55.217Z,55.30
2017-10-20T03:51:23.548Z,55.30
2017-10-20T03:53:51.789Z,55.30
2017-10-20T03:56:20.023Z,55.20
2017-10-20T03:58:48.319Z,55.30
2017-10-20T04:01:16.563Z,55.30
2017-10-20T04:03:45.614Z,55.50
2017-10-20T04:06:14.673Z,55.40
2017-10-20T04:08:42.905Z,55.10
2017-10-20T04:11:11.872Z,55.40
2017-10-20T04:13:40.092Z,55.40
2017-10-20T04:16:08.319Z,55.40
2017-10-20T04:18:36.518Z,55.40
2017-10-20T04:21:04.775Z,55.40
2017-10-20T04:23:33.808Z,55.30
2017-10-20T04:26:02.048Z,55.90
2017-10-20T04:28:31.816Z,55.20
2017-10-20T04:31:00.669Z,55.20
2017-10-20T04:33:28.885Z,55.20
2017-10-20T04:35:57.113Z,55.30
2017-10-20T04:38:25.324Z,55.30
2017-10-20T04:40:53.550Z,55.20
2017-10-20T04:43:21.840Z,55.30
2017-10-20T04:45:50.177Z,55.20
2017-10-20T04:48:18.398Z,55.20
2017-10-20T04:50:46.624Z,55.10
2017-10-20T04:53:14.823Z,55.20
2017-10-20T04:55:43.815Z,55.20
2017-10-20T04:58:12.945Z,55.30
2017-10-20T05:00:41.175Z,55.20
2017-10-20T05:03:10.155Z,55.20
2017-10-20T05:05:38.381Z,55.20
2017-10-20T05:08:06.622Z,55.20
2017-10-20T05:10:35.623Z,55.10
2017-10-20T05:13:04.644Z,55.00
2017-10-20T05:15:32.882Z,55.00
2017-10-20T05:18:01.844Z,54.90
2017-10-20T05:20:30.074Z,54.90
2017-10-20T05:22:58.328Z,54.80
2017-10-20T05:25:27.321Z,54.70
2017-10-20T05:27:55.499Z,54.60
2017-10-20T05:30:23.732Z,54.60
2017-10-20T05:32:51.972Z,54.60
2017-10-20T05:35:20.487Z,54.50
2017-10-20T05:37:48.759Z,54.40
2017-10-20T05:40:17.094Z,54.40
2017-10-20T05:42:45.377Z,54.30
2017-10-20T05:45:13.640Z,54.20
2017-10-20T05:47:41.867Z,54.20
2017-10-20T05:50:10.073Z,54.20
2017-10-20T05:52:39.220Z,54.30
2017-10-20T05:55:07.447Z,54.30
2017-10-20T05:57:36.442Z,54.30
2017-10-20T06:00:04.675Z,54.20
2017-10-20T06:02:32.920Z,54.20
2017-10-20T06:05:01.129Z,54.20
2017-10-20T06:07:29.332Z,54.20
2017-10-20T06:09:58.310Z,54.10
2017-10-20T06:12:27.342Z,54.10
2017-10-20T06:14:55.556Z,54.00
2017-10-20T06:17:41.369Z,54.10
2017-10-20T06:20:10.481Z,54.00
2017-10-20T06:22:38.769Z,54.00
2017-10-20T06:25:07.874Z,54.00
2017-10-20T06:27:37.417Z,53.90
2017-10-20T06:30:06.451Z,53.90
2017-10-20T06:32:34.740Z,53.80
2017-10-20T06:35:03.004Z,53.80
2017-10-20T06:37:31.224Z,53.80
2017-10-20T06:39:59.530Z,53.80
2017-10-20T06:42:28.533Z,53.70
2017-10-20T06:44:57.511Z,53.70
2017-10-20T06:47:26.689Z,53.70
2017-10-20T06:49:54.932Z,53.60
2017-10-20T06:52:23.251Z,53.60
2017-10-20T06:54:52.251Z,53.60
2017-10-20T06:57:21.228Z,53.60
2017-10-20T06:59:49.448Z,53.60
2017-10-20T07:02:17.683Z,53.60
2017-10-20T07:04:46.682Z,53.60
2017-10-20T07:07:15.676Z,53.60
2017-10-20T07:09:44.668Z,53.60
2017-10-20T07:12:13.653Z,53.60
2017-10-20T07:14:42.606Z,53.60
2017-10-20T07:17:10.830Z,53.60
2017-10-20T07:19:44.258Z,53.60
2017-10-20T07:22:12.455Z,53.60
2017-10-20T07:24:40.675Z,53.60
2017-10-20T07:27:09.742Z,53.50
2017-10-20T07:29:37.938Z,53.50
2017-10-20T07:32:06.902Z,53.60
2017-10-20T07:34:35.223Z,53.60
2017-10-20T07:37:03.555Z,53.60
2017-10-20T07:39:31.801Z,53.60
2017-10-20T07:42:00.815Z,53.60
2017-10-20T07:44:29.173Z,53.60
2017-10-20T07:46:57.423Z,53.60
2017-10-20T07:49:25.796Z,53.60
2017-10-20T07:51:54.064Z,53.50
2017-10-20T07:54:23.081Z,53.60
2017-10-20T07:56:51.335Z,53.50
2017-10-20T07:59:19.551Z,53.50
2017-10-20T08:01:47.826Z,53.40
2017-10-20T08:04:17.013Z,53.40
2017-10-20T08:06:45.247Z,53.40
2017-10-20T08:09:14.244Z,53.40
2017-10-20T08:11:42.520Z,53.30
2017-10-20T08:14:10.809Z,53.40
2017-10-20T08:16:39.053Z,53.40
2017-10-20T08:19:07.327Z,53.40
2017-10-20T08:21:36.407Z,53.90
2017-10-20T08:24:04.649Z,53.40
2017-10-20T08:26:32.883Z,53.40
2017-10-20T08:29:01.876Z,53.50
2017-10-20T08:31:30.161Z,53.50
2017-10-20T08:33:58.442Z,53.50
2017-10-20T08:36:26.704Z,53.50
2017-10-20T08:38:55.702Z,53.50
2017-10-20T08:41:23.936Z,53.50
2017-10-20T08:43:52.168Z,53.50
2017-10-20T08:46:20.367Z,53.50
2017-10-20T08:48:48.619Z,53.50
2017-10-20T08:51:16.837Z,53.40
2017-10-20T08:53:45.108Z,53.50
2017-10-20T08:56:13.411Z,53.50
2017-10-20T08:58:42.395Z,53.50
2017-10-20T09:01:12.398Z,54.10
2017-10-20T09:03:40.650Z,53.50
2017-10-20T09:06:08.855Z,53.50
2017-10-20T09:08:37.102Z,53.50
2017-10-20T09:11:05.341Z,54.10
2017-10-20T09:13:33.608Z,53.50
2017-10-20T09:16:01.868Z,53.60
2017-10-20T09:18:30.855Z,53.50
2017-10-20T09:20:59.931Z,53.60
2017-10-20T09:23:28.472Z,53.50
2017-10-20T09:25:56.689Z,53.60
2017-10-20T09:28:24.927Z,53.60
2017-10-20T09:30:53.184Z,53.60
2017-10-20T09:33:21.432Z,53.60
2017-10-20T09:35:50.420Z,53.60
2017-10-20T09:38:19.392Z,53.60
2017-10-20T09:40:47.621Z,53.60
2017-10-20T09:43:15.898Z,53.60
2017-10-20T09:45:44.112Z,53.60
2017-10-20T09:48:12.342Z,53.60
2017-10-20T09:50:40.553Z,53.60
2017-10-20T09:53:08.792Z,53.60
2017-10-20T09:55:37.040Z,53.60
2017-10-20T09:58:06.090Z,53.60
2017-10-20T10:00:34.433Z,53.60
2017-10-20T10:03:02.748Z,53.60
2017-10-20T10:05:31.089Z,53.70
2017-10-20T10:07:59.295Z,53.70
2017-10-20T10:10:27.494Z,53.70
2017-10-20T10:12:55.808Z,53.70
2017-10-20T10:15:24.023Z,53.70
2017-10-20T10:17:52.325Z,53.70
2017-10-20T10:20:21.349Z,53.80
2017-10-20T10:22:49.553Z,53.80
2017-10-20T10:25:17.782Z,53.80
2017-10-20T10:27:46.749Z,53.80
2017-10-20T10:30:15.016Z,53.80
2017-10-20T10:32:43.364Z,53.90
2017-10-20T10:35:11.649Z,53.90
2017-10-20T10:37:39.907Z,53.90
2017-10-20T10:40:08.113Z,53.90
2017-10-20T10:42:36.346Z,53.90
2017-10-20T10:45:04.674Z,54.00
2017-10-20T10:47:32.902Z,54.00
2017-10-20T10:50:01.191Z,54.00
2017-10-20T10:52:29.403Z,54.00
2017-10-20T10:54:57.635Z,54.10
2017-10-20T10:57:25.840Z,54.80
2017-10-20T10:59:54.044Z,54.10
2017-10-20T11:02:23.020Z,54.10
2017-10-20T11:04:52.043Z,54.30
2017-10-20T11:07:37.984Z,54.20
2017-10-20T11:10:24.016Z,54.20
2017-10-20T11:13:01.002Z,54.20
2017-10-20T11:15:29.371Z,54.30
2017-10-20T11:17:58.392Z,54.40
2017-10-20T11:20:26.666Z,54.40
2017-10-20T11:22:54.906Z,54.40
2017-10-20T11:25:23.956Z,54.50
2017-10-20T11:27:52.237Z,54.30
2017-10-20T11:30:20.448Z,54.40
2017-10-20T11:32:49.456Z,54.40
2017-10-20T11:35:17.677Z,54.40
2017-10-20T11:37:45.884Z,54.40
2017-10-20T11:40:14.868Z,54.50
2017-10-20T11:42:43.062Z,54.50
2017-10-20T11:45:11.273Z,54.40
2017-10-20T11:47:39.540Z,54.50
2017-10-20T11:50:07.777Z,54.50
2017-10-20T11:52:36.771Z,54.50
2017-10-20T11:55:05.820Z,54.50
2017-10-20T11:57:34.082Z,54.40
2017-10-20T12:00:02.321Z,54.50
2017-10-20T12:02:30.544Z,54.50
2017-10-20T12:04:58.833Z,54.50
2017-10-20T12:07:27.049Z,54.50
2017-10-20T12:09:55.291Z,54.50
2017-10-20T12:12:23.579Z,54.50
2017-10-20T12:14:52.633Z,54.60
2017-10-20T12:17:20.853Z,54.50
2017-10-20T12:19:50.627Z,54.60
2017-10-20T12:22:18.836Z,54.50
2017-10-20T12:24:47.840Z,54.60
2017-10-20T12:27:16.064Z,54.50
2017-10-20T12:29:44.272Z,54.50
2017-10-20T12:32:13.347Z,54.60
2017-10-20T12:34:41.627Z,54.60
2017-10-20T12:37:09.831Z,54.60
2017-10-20T12:39:38.100Z,54.10
2017-10-20T12:42:07.077Z,54.70
2017-10-20T12:44:36.181Z,54.80
2017-10-20T12:47:04.407Z,54.70
2017-10-20T12:49:32.645Z,54.70
2017-10-20T12:52:00.867Z,54.80
2017-10-20T12:54:29.243Z,54.70
2017-10-20T12:56:57.457Z,54.80
2017-10-20T12:59:26.493Z,54.80
2017-10-20T13:01:54.704Z,54.70
2017-10-20T13:04:22.922Z,54.80
2017-10-20T13:06:51.143Z,54.80
2017-10-20T13:09:19.360Z,54.90
2017-10-20T13:11:47.587Z,54.90
2017-10-20T13:14:15.879Z,55.00
2017-10-20T13:16:44.107Z,55.10
2017-10-20T13:19:12.372Z,55.10
2017-10-20T13:21:41.378Z,55.10
2017-10-20T13:24:09.607Z,55.10
2017-10-20T13:26:38.596Z,55.10
2017-10-20T13:29:07.556Z,55.20
2017-10-20T13:31:35.875Z,55.20
2017-10-20T13:34:04.093Z,55.20
2017-10-20T13:36:32.425Z,55.20
2017-10-20T13:39:01.472Z,55.20
2017-10-20T13:41:29.759Z,55.20
2017-10-20T13:43:57.951Z,55.30
2017-10-20T13:46:26.923Z,55.40
2017-10-20T13:48:55.201Z,55.40
2017-10-20T13:51:23.483Z,55.40
2017-10-20T13:53:51.689Z,55.30
2017-10-20T13:56:19.896Z,55.40
2017-10-20T13:58:48.150Z,55.40
2017-10-20T14:01:16.429Z,55.30
2017-10-20T14:03:44.663Z,55.30
2017-10-20T14:06:12.941Z,55.40
2017-10-20T14:08:41.926Z,55.40
2017-10-20T14:11:10.158Z,55.40
2017-10-20T14:13:38.373Z,55.40
2017-10-20T14:16:06.687Z,55.40
2017-10-20T14:18:34.970Z,55.70
2017-10-20T14:21:03.178Z,55.40
2017-10-20T14:23:31.364Z,55.40
2017-10-20T14:25:59.579Z,55.40
2017-10-20T14:28:27.784Z,55.40
2017-10-20T14:30:55.969Z,55.40
2017-10-20T14:33:24.158Z,55.40
2017-10-20T14:35:52.362Z,55.40
2017-10-20T14:38:21.301Z,55.40
2017-10-20T14:40:49.563Z,55.40
2017-10-20T14:43:17.782Z,55.40
2017-10-20T14:45:46.743Z,55.40
2017-10-20T14:48:14.962Z,55.40
2017-10-20T14:50:43.915Z,55.50
2017-10-20T14:53:12.214Z,55.40
2017-10-20T14:55:41.192Z,55.80
2017-10-20T14:58:09.437Z,55.50
2017-10-20T15:00:37.650Z,55.50
2017-10-20T15:03:06.646Z,55.50
2017-10-20T15:05:35.663Z,55.40
2017-10-20T15:08:04.617Z,55.40
2017-10-20T15:10:32.821Z,55.40
2017-10-20T15:13:01.787Z,55.40
2017-10-20T15:15:29.977Z,55.40
2017-10-20T15:17:58.978Z,55.40
2017-10-20T15:20:28.009Z,55.40
2017-10-20T15:22:56.184Z,55.40
2017-10-20T15:25:24.502Z,55.40
2017-10-20T15:27:52.657Z,55.30
2017-10-20T15:30:20.843Z,55.30
2017-10-20T15:35:23.660Z,55.40
2017-10-20T15:37:52.711Z,55.40
2017-10-20T15:40:20.900Z,55.40
2017-10-20T15:42:49.097Z,55.30
2017-10-20T15:45:18.080Z,55.40
2017-10-20T15:47:46.263Z,55.40
2017-10-20T15:50:15.362Z,55.40
2017-10-20T15:52:44.316Z,55.40
2017-10-20T15:55:12.518Z,55.40
2017-10-20T15:57:42.271Z,55.40
2017-10-20T16:00:10.480Z,55.30
2017-10-20T16:02:38.757Z,55.40
2017-10-20T16:05:06.990Z,55.40
2017-10-20T16:07:35.416Z,55.30
2017-10-20T16:10:03.600Z,55.30
2017-10-20T16:12:32.561Z,55.40
2017-10-20T16:15:01.087Z,55.30
2017-10-20T16:17:29.297Z,55.30
2017-10-20T16:19:57.505Z,55.30
2017-10-20T16:22:25.694Z,55.30
2017-10-20T16:24:54.653Z,55.20
2017-10-20T16:27:22.879Z,55.20
2017-10-20T16:29:51.475Z,55.20
2017-10-20T16:32:19.716Z,55.20
2017-10-20T16:34:47.897Z,55.20
2017-10-20T16:37:16.848Z,55.10
2017-10-20T16:39:45.044Z,55.10
2017-10-20T16:42:13.231Z,55.10
2017-10-20T16:44:42.180Z,55.10
2017-10-20T16:47:10.364Z,55.00
2017-10-20T16:49:38.551Z,55.00
2017-10-20T16:52:06.759Z,55.00
2017-10-20T16:54:34.958Z,55.00
2017-10-20T16:57:03.133Z,55.00
2017-10-20T16:59:31.379Z,55.00
2017-10-20T17:01:59.673Z,55.00
2017-10-20T17:04:30.543Z,54.90
2017-10-20T17:06:58.834Z,54.90
2017-10-20T17:09:27.066Z,55.00
2017-10-20T17:11:55.741Z,55.00
2017-10-20T17:14:23.973Z,55.00
2017-10-20T17:16:52.196Z,55.10
2017-10-20T17:19:20.431Z,55.10
2017-10-20T17:21:49.467Z,55.10
2017-10-20T17:24:17.700Z,55.10
2017-10-20T17:26:46.790Z,55.10
2017-10-20T17:29:16.509Z,55.10
2017-10-20T17:31:45.747Z,55.10
2017-10-20T17:34:14.247Z,55.00
2017-10-20T17:36:42.568Z,55.00
2017-10-20T17:39:11.609Z,54.90
2017-10-20T17:41:39.815Z,54.90
2017-10-20T17:44:08.440Z,54.90
2017-10-20T17:46:36.691Z,54.80
2017-10-20T17:49:05.708Z,54.80
2017-10-20T17:51:33.984Z,54.80
2017-10-20T17:54:02.316Z,54.70
2017-10-20T17:56:30.557Z,54.80
2017-10-20T17:58:58.791Z,54.70
2017-10-20T18:01:28.734Z,54.80
2017-10-20T18:03:57.021Z,55.40
2017-10-20T18:06:25.223Z,54.80
2017-10-20T18:08:53.472Z,54.80
2017-10-20T18:11:21.683Z,54.70
2017-10-20T18:13:49.937Z,54.70
2017-10-20T18:16:18.176Z,54.70
2017-10-20T18:18:46.396Z,54.60
2017-10-20T18:21:14.632Z,55.20
2017-10-20T18:23:42.856Z,54.60
2017-10-20T18:26:11.178Z,54.60
2017-10-20T18:28:40.271Z,54.60
2017-10-20T18:31:08.540Z,54.60
2017-10-20T18:33:36.792Z,54.60
2017-10-20T18:36:05.803Z,54.60
2017-10-20T18:38:35.256Z,54.60
2017-10-20T18:41:03.573Z,54.60
2017-10-20T18:43:37.004Z,54.60
2017-10-20T18:46:06.030Z,54.70
2017-10-20T18:48:34.311Z,54.60
2017-10-20T18:51:03.198Z,54.50
2017-10-20T18:53:33.010Z,54.50
2017-10-20T18:56:01.414Z,54.60
2017-10-20T18:58:31.595Z,54.50
2017-10-20T19:01:00.709Z,54.40
2017-10-20T19:03:29.009Z,54.40
2017-10-20T19:05:57.274Z,55.10
2017-10-20T19:08:25.534Z,54.50
2017-10-20T19:10:57.045Z,54.40
2017-10-20T19:13:25.353Z,54.40
2017-10-20T19:15:54.886Z,54.40
2017-10-20T19:18:25.562Z,54.40
2017-10-20T19:20:53.787Z,54.40
2017-10-20T19:23:23.573Z,54.40
2017-10-20T19:25:53.871Z,54.40
2017-10-20T19:28:23.040Z,54.50
2017-10-20T19:30:51.401Z,54.40
2017-10-20T19:33:19.711Z,54.40
2017-10-20T19:35:49.516Z,54.40
2017-10-20T19:38:21.303Z,54.40
2017-10-20T19:40:52.596Z,54.40
2017-10-20T19:43:29.724Z,54.40
2017-10-20T19:45:58.824Z,54.30
2017-10-20T19:48:27.105Z,54.30
2017-10-20T19:50:55.336Z,54.30
2017-10-20T19:53:26.995Z,54.30
2017-10-20T19:55:56.264Z,54.30
2017-10-20T19:58:24.558Z,54.30
2017-10-20T20:00:52.875Z,54.20
2017-10-20T20:03:21.113Z,54.20
2017-10-20T20:05:50.552Z,54.20
2017-10-20T20:08:18.931Z,54.20
2017-10-20T20:10:48.132Z,54.10
2017-10-20T20:13:17.288Z,54.10
2017-10-20T20:15:45.511Z,54.10
2017-10-20T20:18:13.856Z,54.10
2017-10-20T20:20:42.131Z,54.10
2017-10-20T20:23:10.535Z,54.00
2017-10-20T20:25:38.756Z,54.00
2017-10-20T20:28:14.566Z,54.00
2017-10-20T20:30:44.252Z,54.00
2017-10-20T20:33:14.250Z,54.00
2017-10-20T20:35:42.568Z,54.00
2017-10-20T20:38:10.821Z,54.00
2017-10-20T20:40:39.044Z,54.10
2017-10-20T20:43:08.037Z,54.00
2017-10-20T20:45:37.117Z,53.90
2017-10-20T20:48:05.377Z,53.90
2017-10-20T20:50:33.687Z,53.90
2017-10-20T20:53:01.928Z,53.80
2017-10-20T20:55:30.204Z,53.90
2017-10-20T20:57:58.460Z,53.90
2017-10-20T21:05:42.833Z,53.70
2017-10-20T21:08:11.083Z,53.70
2017-10-20T21:12:59.275Z,53.60
2017-10-20T21:15:27.516Z,53.70
2017-10-20T21:17:55.801Z,53.80
2017-10-20T21:20:23.981Z,53.80
2017-10-20T21:22:52.227Z,53.80
2017-10-20T21:25:20.510Z,53.80
2017-10-20T21:27:48.740Z,53.80
2017-10-20T21:30:17.046Z,53.80
2017-10-20T21:32:45.290Z,53.50
2017-10-20T21:35:13.525Z,53.80
2017-10-20T21:37:41.840Z,53.70
2017-10-20T21:40:10.095Z,53.70
2017-10-20T21:42:38.327Z,53.70
2017-10-20T21:45:06.577Z,53.70
2017-10-20T21:47:35.595Z,53.70
2017-10-20T21:50:03.985Z,53.70
2017-10-20T21:52:32.230Z,53.60
2017-10-20T21:55:01.259Z,53.60
2017-10-20T21:57:29.529Z,53.60
2017-10-20T21:59:58.660Z,53.60
2017-10-20T22:02:26.912Z,53.60
2017-10-20T22:04:55.130Z,53.60
2017-10-20T22:07:25.100Z,53.60
2017-10-20T22:09:53.547Z,53.60
2017-10-20T22:12:21.764Z,53.50
2017-10-20T22:14:50.027Z,53.60
2017-10-20T22:17:18.257Z,53.50
2017-10-20T22:19:47.282Z,53.60
2017-10-20T22:22:15.652Z,53.50
2017-10-20T22:24:43.887Z,53.60
2017-10-20T22:27:12.883Z,53.60
2017-10-20T22:29:42.866Z,53.70
2017-10-20T22:32:11.085Z,53.60
2017-10-20T22:34:40.179Z,53.70
2017-10-20T22:37:09.211Z,53.80
2017-10-20T22:39:37.436Z,53.70
2017-10-20T22:42:06.432Z,53.90
2017-10-20T22:44:34.712Z,53.90
2017-10-20T22:47:03.724Z,54.00
2017-10-20T22:49:31.951Z,54.00
2017-10-20T22:52:00.229Z,53.90
2017-10-20T22:54:28.448Z,53.90
2017-10-20T22:56:56.674Z,53.90
2017-10-20T22:59:25.482Z,53.80
2017-10-20T23:01:53.701Z,53.70
2017-10-20T23:04:21.937Z,53.70
2017-10-20T23:06:51.056Z,53.70
2017-10-20T23:09:20.223Z,53.70
2017-10-20T23:11:49.269Z,53.80
2017-10-20T23:14:17.504Z,53.70
2017-10-20T23:16:46.495Z,53.60
2017-10-20T23:19:15.489Z,53.60
2017-10-20T23:21:43.828Z,53.60
2017-10-20T23:24:12.085Z,53.60
2017-10-20T23:26:40.319Z,53.60
2017-10-20T23:29:08.563Z,53.60
2017-10-20T23:31:36.828Z,53.50
2017-10-20T23:34:05.079Z,53.50
2017-10-20T23:36:33.325Z,53.50
2017-10-20T23:39:01.548Z,53.50
2017-10-20T23:41:29.807Z,53.50
2017-10-20T23:43:58.055Z,53.50
2017-10-20T23:46:26.277Z,53.40
2017-10-20T23:48:54.496Z,54.00
2017-10-20T23:51:22.736Z,53.40
2017-10-20T23:53:51.720Z,53.50
2017-10-20T23:56:19.934Z,53.40
2017-10-20T23:58:48.184Z,53.40
